Terminal Aerodrome Forecast
Issued by NWS

Home | Current Version | Previous Version | Graphics & Text | Print | Product List | Glossary On
Versions: 1 2 3 4 5 6 7 8 9 10 11 12 13 14 15 16
000
FTUS43 KPAH 031731
TAFOWB
TAF
KOWB 031731Z 0318/0418 33006KT P6SM BKN045
     FM040400 26005KT P6SM BKN060
      TEMPO 0411/0415 -TSRA BKN070 OVC110CB
     FM041500 28010G19KT P6SM BKN018 OVC040=

USA.gov is the U.S. government's official web portal to all federal, state and local government web resources and services.